Airfield :
LOGIN :

Register | Disclaimer

   EN    FR    IT 

 










Legend :    VFR   Marginal VFR   IFR   Intensive IFR   Very Intensive IFR
Visi :
Ceiling :
>= 8 km
>= 3000ft
5 to 8 km
1000 to 3000 ft
1500m to 5 km
500 to 1000 ft
800 to 1500m
200 to 500 ft
< 800m
< 200 ft
Symbols :   Thunderstorms  Fog  Heavy snow  Heavy precipitations  Wind > 20 kt
SIGMETs :     Misc.  Thunderstorms  Icing  Turbulence  Mountain Waves  Volcanic Ashes






- Airport Elevation : 1400 ft


LSME - Luzern Emmen

CURRENT METAR :
  • 182020Z AUTO VRB02KT 9999NDV SCT039 BKN055 OVC073 07/02 Q1020 RMK

EXPIRED METARs :
  • 181950Z AUTO VRB02KT 9999NDV FEW034 OVC041 07/02 Q1020 RMK
  • 181920Z AUTO 36002KT 9999NDV OVC039 07/02 Q1020 RMK
  • 181850Z AUTO VRB02KT 9999NDV BKN038 BKN051 BKN080 07/02 Q1020 RMK
  • 181820Z AUTO 36003KT 330V030 9999NDV FEW041 SCT049 OVC078 08/02 Q1019 RMK
  • 181750Z AUTO 35006KT 320V030 9999NDV BKN042 BKN073 08/02 Q1019 RMK
  • 181720Z AUTO 35003G14KT 330V030 9999NDV BKN038 BKN048 OVC074 09/02 Q1019 RMK

Expired Forecast.



MET'MAP, your aeronautical weather chart ! - Copyright ORBIFLY December 2007 - Disclaimer

ORBIFLY MET'MAP TEAM :

Programming & Development : Alexandra Zaïnal
Concept & original design : Baudouin d'Aumeries
Assistance for programming : Marc-Olivier Méhu
Technical & hardware support : Manuel Goepfert

Contact : metmap@orbifly.com




SOURCES & CREDITS :

   NOAA